sensor_id;sensor_type;location;lat;lon;timestamp;P1;durP1;ratioP1;P2;durP2;ratioP2
25045;SDS011;13044;49.304;12.840;2024-02-26T00:00:38;9.88;;;6.13;;
25045;SDS011;13044;49.304;12.840;2024-02-26T00:03:05;12.20;;;7.10;;
25045;SDS011;13044;49.304;12.840;2024-02-26T00:05:32;12.32;;;6.47;;
25045;SDS011;13044;49.304;12.840;2024-02-26T00:07:59;9.80;;;6.25;;
25045;SDS011;13044;49.304;12.840;2024-02-26T00:10:30;10.80;;;6.68;;
25045;SDS011;13044;49.304;12.840;2024-02-26T00:12:57;12.50;;;6.10;;
25045;SDS011;13044;49.304;12.840;2024-02-26T00:15:24;9.45;;;6.15;;
25045;SDS011;13044;49.304;12.840;2024-02-26T00:17:51;11.40;;;6.10;;
25045;SDS011;13044;49.304;12.840;2024-02-26T00:20:18;9.75;;;6.00;;
25045;SDS011;13044;49.304;12.840;2024-02-26T00:22:45;11.75;;;5.90;;
25045;SDS011;13044;49.304;12.840;2024-02-26T00:25:12;9.95;;;6.05;;
25045;SDS011;13044;49.304;12.840;2024-02-26T00:27:39;13.35;;;5.95;;
25045;SDS011;13044;49.304;12.840;2024-02-26T00:30:07;9.68;;;6.45;;
25045;SDS011;13044;49.304;12.840;2024-02-26T00:32:35;14.32;;;6.35;;
25045;SDS011;13044;49.304;12.840;2024-02-26T00:35:02;12.70;;;6.88;;
25045;SDS011;13044;49.304;12.840;2024-02-26T00:37:29;13.93;;;7.10;;
25045;SDS011;13044;49.304;12.840;2024-02-26T00:39:56;9.90;;;6.70;;
25045;SDS011;13044;49.304;12.840;2024-02-26T00:42:23;12.15;;;7.20;;
25045;SDS011;13044;49.304;12.840;2024-02-26T00:44:50;15.98;;;9.35;;
25045;SDS011;13044;49.304;12.840;2024-02-26T00:47:17;26.48;;;12.30;;
25045;SDS011;13044;49.304;12.840;2024-02-26T00:49:44;20.25;;;10.85;;
25045;SDS011;13044;49.304;12.840;2024-02-26T00:52:11;13.70;;;9.02;;
25045;SDS011;13044;49.304;12.840;2024-02-26T00:54:37;13.90;;;7.75;;
25045;SDS011;13044;49.304;12.840;2024-02-26T00:57:04;15.45;;;8.23;;
25045;SDS011;13044;49.304;12.840;2024-02-26T00:59:31;16.45;;;8.38;;
25045;SDS011;13044;49.304;12.840;2024-02-26T01:01:58;13.10;;;7.88;;
25045;SDS011;13044;49.304;12.840;2024-02-26T01:04:28;15.60;;;8.48;;
25045;SDS011;13044;49.304;12.840;2024-02-26T01:06:55;12.88;;;8.52;;
25045;SDS011;13044;49.304;12.840;2024-02-26T01:09:22;14.50;;;9.20;;
25045;SDS011;13044;49.304;12.840;2024-02-26T01:11:49;14.43;;;9.18;;
25045;SDS011;13044;49.304;12.840;2024-02-26T01:14:16;14.88;;;8.35;;
25045;SDS011;13044;49.304;12.840;2024-02-26T01:16:42;13.73;;;7.60;;
25045;SDS011;13044;49.304;12.840;2024-02-26T01:19:09;14.05;;;7.32;;
25045;SDS011;13044;49.304;12.840;2024-02-26T01:21:37;15.20;;;8.43;;
25045;SDS011;13044;49.304;12.840;2024-02-26T01:24:03;13.68;;;7.65;;
25045;SDS011;13044;49.304;12.840;2024-02-26T01:26:31;13.65;;;8.07;;
25045;SDS011;13044;49.304;12.840;2024-02-26T01:28:57;12.95;;;8.00;;
25045;SDS011;13044;49.304;12.840;2024-02-26T01:31:24;13.07;;;7.90;;
25045;SDS011;13044;49.304;12.840;2024-02-26T01:33:51;15.52;;;9.27;;
25045;SDS011;13044;49.304;12.840;2024-02-26T01:36:19;14.82;;;8.55;;
25045;SDS011;13044;49.304;12.840;2024-02-26T01:38:47;14.35;;;8.40;;
25045;SDS011;13044;49.304;12.840;2024-02-26T01:41:14;17.30;;;8.98;;
25045;SDS011;13044;49.304;12.840;2024-02-26T01:43:41;14.45;;;8.85;;
25045;SDS011;13044;49.304;12.840;2024-02-26T01:46:11;16.40;;;9.35;;
25045;SDS011;13044;49.304;12.840;2024-02-26T01:48:41;16.40;;;9.85;;
25045;SDS011;13044;49.304;12.840;2024-02-26T01:51:09;13.75;;;8.45;;
25045;SDS011;13044;49.304;12.840;2024-02-26T01:53:38;17.02;;;9.55;;
25045;SDS011;13044;49.304;12.840;2024-02-26T01:56:05;13.25;;;8.57;;
25045;SDS011;13044;49.304;12.840;2024-02-26T01:58:33;14.18;;;8.70;;
25045;SDS011;13044;49.304;12.840;2024-02-26T02:01:01;14.77;;;8.85;;
25045;SDS011;13044;49.304;12.840;2024-02-26T02:03:29;16.42;;;9.15;;
25045;SDS011;13044;49.304;12.840;2024-02-26T02:05:57;15.38;;;8.98;;
25045;SDS011;13044;49.304;12.840;2024-02-26T02:08:25;14.80;;;9.00;;
25045;SDS011;13044;49.304;12.840;2024-02-26T02:10:53;16.52;;;9.48;;
25045;SDS011;13044;49.304;12.840;2024-02-26T02:13:20;16.77;;;9.10;;
25045;SDS011;13044;49.304;12.840;2024-02-26T02:15:47;15.40;;;9.00;;
25045;SDS011;13044;49.304;12.840;2024-02-26T02:18:14;16.58;;;9.55;;
25045;SDS011;13044;49.304;12.840;2024-02-26T02:20:41;14.70;;;9.38;;
25045;SDS011;13044;49.304;12.840;2024-02-26T02:23:08;17.20;;;9.27;;
25045;SDS011;13044;49.304;12.840;2024-02-26T02:25:35;14.35;;;8.77;;
25045;SDS011;13044;49.304;12.840;2024-02-26T02:28:01;18.50;;;9.45;;
25045;SDS011;13044;49.304;12.840;2024-02-26T02:30:29;16.42;;;9.55;;
25045;SDS011;13044;49.304;12.840;2024-02-26T02:32:57;16.90;;;9.30;;
25045;SDS011;13044;49.304;12.840;2024-02-26T02:35:25;17.38;;;9.30;;
25045;SDS011;13044;49.304;12.840;2024-02-26T02:37:52;15.02;;;9.60;;
25045;SDS011;13044;49.304;12.840;2024-02-26T02:40:19;16.83;;;9.00;;
25045;SDS011;13044;49.304;12.840;2024-02-26T02:42:46;17.70;;;9.95;;
25045;SDS011;13044;49.304;12.840;2024-02-26T02:45:13;16.15;;;9.38;;
25045;SDS011;13044;49.304;12.840;2024-02-26T02:47:40;15.75;;;9.60;;
25045;SDS011;13044;49.304;12.840;2024-02-26T02:50:07;17.13;;;10.57;;
25045;SDS011;13044;49.304;12.840;2024-02-26T02:52:34;19.45;;;11.27;;
25045;SDS011;13044;49.304;12.840;2024-02-26T02:55:02;21.35;;;11.63;;
25045;SDS011;13044;49.304;12.840;2024-02-26T02:57:29;19.13;;;11.50;;
25045;SDS011;13044;49.304;12.840;2024-02-26T02:59:57;19.83;;;12.35;;
25045;SDS011;13044;49.304;12.840;2024-02-26T03:02:24;20.75;;;12.55;;
25045;SDS011;13044;49.304;12.840;2024-02-26T03:04:51;21.10;;;12.63;;
25045;SDS011;13044;49.304;12.840;2024-02-26T03:07:18;22.45;;;13.40;;
25045;SDS011;13044;49.304;12.840;2024-02-26T03:09:45;25.02;;;13.45;;
25045;SDS011;13044;49.304;12.840;2024-02-26T03:12:12;24.58;;;13.05;;
25045;SDS011;13044;49.304;12.840;2024-02-26T03:14:39;26.92;;;13.73;;
25045;SDS011;13044;49.304;12.840;2024-02-26T03:17:06;28.52;;;14.35;;
25045;SDS011;13044;49.304;12.840;2024-02-26T03:19:32;26.77;;;13.50;;
25045;SDS011;13044;49.304;12.840;2024-02-26T03:21:59;31.75;;;15.93;;
25045;SDS011;13044;49.304;12.840;2024-02-26T03:24:26;33.67;;;15.82;;
25045;SDS011;13044;49.304;12.840;2024-02-26T03:26:53;36.70;;;16.50;;
25045;SDS011;13044;49.304;12.840;2024-02-26T03:29:20;30.63;;;16.08;;
25045;SDS011;13044;49.304;12.840;2024-02-26T03:31:47;34.15;;;16.73;;
25045;SDS011;13044;49.304;12.840;2024-02-26T03:34:14;33.90;;;17.27;;
25045;SDS011;13044;49.304;12.840;2024-02-26T03:36:41;30.77;;;16.10;;
25045;SDS011;13044;49.304;12.840;2024-02-26T03:39:08;34.97;;;17.55;;
25045;SDS011;13044;49.304;12.840;2024-02-26T03:41:36;34.72;;;17.58;;
25045;SDS011;13044;49.304;12.840;2024-02-26T03:44:03;35.95;;;17.90;;
25045;SDS011;13044;49.304;12.840;2024-02-26T03:46:30;32.47;;;16.67;;
25045;SDS011;13044;49.304;12.840;2024-02-26T03:48:57;32.83;;;16.65;;
25045;SDS011;13044;49.304;12.840;2024-02-26T03:51:24;29.75;;;16.95;;
25045;SDS011;13044;49.304;12.840;2024-02-26T03:53:52;30.27;;;16.90;;
25045;SDS011;13044;49.304;12.840;2024-02-26T03:56:19;31.95;;;17.02;;
25045;SDS011;13044;49.304;12.840;2024-02-26T03:58:46;30.65;;;17.05;;
25045;SDS011;13044;49.304;12.840;2024-02-26T04:01:13;33.47;;;16.92;;
25045;SDS011;13044;49.304;12.840;2024-02-26T04:03:40;33.53;;;17.83;;
25045;SDS011;13044;49.304;12.840;2024-02-26T04:06:08;34.47;;;18.58;;
25045;SDS011;13044;49.304;12.840;2024-02-26T04:08:44;33.28;;;17.35;;
25045;SDS011;13044;49.304;12.840;2024-02-26T04:11:11;38.03;;;18.30;;
25045;SDS011;13044;49.304;12.840;2024-02-26T04:13:38;32.92;;;17.85;;
25045;SDS011;13044;49.304;12.840;2024-02-26T04:16:05;34.75;;;17.83;;
25045;SDS011;13044;49.304;12.840;2024-02-26T04:18:33;31.55;;;16.65;;
25045;SDS011;13044;49.304;12.840;2024-02-26T04:21:00;33.15;;;17.15;;
25045;SDS011;13044;49.304;12.840;2024-02-26T04:23:27;31.50;;;17.50;;
25045;SDS011;13044;49.304;12.840;2024-02-26T04:25:54;37.03;;;19.15;;
25045;SDS011;13044;49.304;12.840;2024-02-26T04:28:21;36.92;;;18.85;;
25045;SDS011;13044;49.304;12.840;2024-02-26T04:30:47;36.45;;;19.08;;
25045;SDS011;13044;49.304;12.840;2024-02-26T04:33:14;35.92;;;19.27;;
25045;SDS011;13044;49.304;12.840;2024-02-26T04:35:41;30.77;;;17.05;;
25045;SDS011;13044;49.304;12.840;2024-02-26T04:38:08;33.17;;;18.13;;
25045;SDS011;13044;49.304;12.840;2024-02-26T04:40:35;36.03;;;18.35;;
25045;SDS011;13044;49.304;12.840;2024-02-26T04:43:02;30.25;;;17.27;;
25045;SDS011;13044;49.304;12.840;2024-02-26T04:45:29;35.28;;;17.92;;
25045;SDS011;13044;49.304;12.840;2024-02-26T04:47:56;33.85;;;17.48;;
25045;SDS011;13044;49.304;12.840;2024-02-26T04:50:23;33.03;;;17.50;;
25045;SDS011;13044;49.304;12.840;2024-02-26T04:52:50;30.00;;;17.20;;
25045;SDS011;13044;49.304;12.840;2024-02-26T04:55:17;32.45;;;17.50;;
25045;SDS011;13044;49.304;12.840;2024-02-26T04:57:44;33.40;;;18.38;;
25045;SDS011;13044;49.304;12.840;2024-02-26T05:00:11;29.33;;;16.20;;
25045;SDS011;13044;49.304;12.840;2024-02-26T05:02:39;32.92;;;18.02;;
25045;SDS011;13044;49.304;12.840;2024-02-26T05:05:06;32.65;;;17.95;;
25045;SDS011;13044;49.304;12.840;2024-02-26T05:07:39;37.22;;;19.00;;
25045;SDS011;13044;49.304;12.840;2024-02-26T05:10:07;31.98;;;18.70;;
25045;SDS011;13044;49.304;12.840;2024-02-26T05:12:34;33.65;;;18.90;;
25045;SDS011;13044;49.304;12.840;2024-02-26T05:15:02;36.42;;;19.70;;
25045;SDS011;13044;49.304;12.840;2024-02-26T05:17:30;29.23;;;17.38;;
25045;SDS011;13044;49.304;12.840;2024-02-26T05:19:57;34.72;;;18.23;;
25045;SDS011;13044;49.304;12.840;2024-02-26T05:22:24;30.67;;;16.80;;
25045;SDS011;13044;49.304;12.840;2024-02-26T05:24:50;31.73;;;16.52;;
25045;SDS011;13044;49.304;12.840;2024-02-26T05:27:18;35.08;;;18.38;;
25045;SDS011;13044;49.304;12.840;2024-02-26T05:29:45;32.70;;;17.73;;
25045;SDS011;13044;49.304;12.840;2024-02-26T05:32:12;37.83;;;19.23;;
25045;SDS011;13044;49.304;12.840;2024-02-26T05:34:39;35.45;;;18.52;;
25045;SDS011;13044;49.304;12.840;2024-02-26T05:37:07;35.72;;;19.15;;
25045;SDS011;13044;49.304;12.840;2024-02-26T05:39:34;35.38;;;18.88;;
25045;SDS011;13044;49.304;12.840;2024-02-26T05:42:01;43.35;;;19.73;;
25045;SDS011;13044;49.304;12.840;2024-02-26T05:44:29;33.97;;;18.50;;
25045;SDS011;13044;49.304;12.840;2024-02-26T05:46:56;42.13;;;20.92;;
25045;SDS011;13044;49.304;12.840;2024-02-26T05:49:23;37.83;;;19.75;;
25045;SDS011;13044;49.304;12.840;2024-02-26T05:51:50;36.67;;;19.38;;
25045;SDS011;13044;49.304;12.840;2024-02-26T05:54:16;42.17;;;21.20;;
25045;SDS011;13044;49.304;12.840;2024-02-26T05:56:43;32.47;;;18.15;;
25045;SDS011;13044;49.304;12.840;2024-02-26T05:59:10;27.60;;;16.08;;
25045;SDS011;13044;49.304;12.840;2024-02-26T06:01:37;26.30;;;15.60;;
25045;SDS011;13044;49.304;12.840;2024-02-26T06:04:04;29.88;;;16.40;;
25045;SDS011;13044;49.304;12.840;2024-02-26T06:06:31;30.10;;;16.10;;
25045;SDS011;13044;49.304;12.840;2024-02-26T06:08:58;26.05;;;15.35;;
25045;SDS011;13044;49.304;12.840;2024-02-26T06:11:25;28.63;;;15.00;;
25045;SDS011;13044;49.304;12.840;2024-02-26T06:13:53;29.55;;;16.27;;
25045;SDS011;13044;49.304;12.840;2024-02-26T06:16:20;30.92;;;16.08;;
25045;SDS011;13044;49.304;12.840;2024-02-26T06:18:47;28.67;;;15.90;;
25045;SDS011;13044;49.304;12.840;2024-02-26T06:21:14;30.42;;;15.13;;
25045;SDS011;13044;49.304;12.840;2024-02-26T06:23:41;31.15;;;16.58;;
25045;SDS011;13044;49.304;12.840;2024-02-26T06:26:08;27.25;;;15.93;;
25045;SDS011;13044;49.304;12.840;2024-02-26T06:28:36;29.17;;;15.95;;
25045;SDS011;13044;49.304;12.840;2024-02-26T06:31:06;33.40;;;16.80;;
25045;SDS011;13044;49.304;12.840;2024-02-26T06:33:33;31.02;;;16.35;;
25045;SDS011;13044;49.304;12.840;2024-02-26T06:36:00;29.25;;;16.20;;
25045;SDS011;13044;49.304;12.840;2024-02-26T06:38:27;30.75;;;16.38;;
25045;SDS011;13044;49.304;12.840;2024-02-26T06:40:54;31.02;;;16.17;;
25045;SDS011;13044;49.304;12.840;2024-02-26T06:43:21;26.27;;;13.98;;
25045;SDS011;13044;49.304;12.840;2024-02-26T06:45:48;28.98;;;15.63;;
25045;SDS011;13044;49.304;12.840;2024-02-26T06:48:15;22.15;;;13.48;;
25045;SDS011;13044;49.304;12.840;2024-02-26T06:50:42;24.25;;;13.48;;
25045;SDS011;13044;49.304;12.840;2024-02-26T06:53:09;23.90;;;13.18;;
25045;SDS011;13044;49.304;12.840;2024-02-26T06:55:35;21.00;;;12.15;;
25045;SDS011;13044;49.304;12.840;2024-02-26T06:58:06;23.58;;;13.77;;
25045;SDS011;13044;49.304;12.840;2024-02-26T07:00:33;23.80;;;14.25;;
25045;SDS011;13044;49.304;12.840;2024-02-26T07:03:00;23.52;;;13.23;;
25045;SDS011;13044;49.304;12.840;2024-02-26T07:05:27;27.35;;;14.25;;
25045;SDS011;13044;49.304;12.840;2024-02-26T07:07:57;24.65;;;14.25;;
25045;SDS011;13044;49.304;12.840;2024-02-26T07:10:24;25.63;;;14.30;;
25045;SDS011;13044;49.304;12.840;2024-02-26T07:12:51;23.73;;;13.82;;
25045;SDS011;13044;49.304;12.840;2024-02-26T07:15:18;27.27;;;14.93;;
25045;SDS011;13044;49.304;12.840;2024-02-26T07:17:45;28.10;;;15.00;;
25045;SDS011;13044;49.304;12.840;2024-02-26T07:20:14;36.22;;;19.80;;
25045;SDS011;13044;49.304;12.840;2024-02-26T07:22:42;28.48;;;16.35;;
25045;SDS011;13044;49.304;12.840;2024-02-26T07:25:09;30.52;;;16.77;;
25045;SDS011;13044;49.304;12.840;2024-02-26T07:27:39;28.98;;;15.38;;
25045;SDS011;13044;49.304;12.840;2024-02-26T07:30:06;29.23;;;16.42;;
25045;SDS011;13044;49.304;12.840;2024-02-26T07:32:35;27.50;;;15.25;;
25045;SDS011;13044;49.304;12.840;2024-02-26T07:35:02;25.13;;;14.40;;
25045;SDS011;13044;49.304;12.840;2024-02-26T07:37:29;28.20;;;15.10;;
25045;SDS011;13044;49.304;12.840;2024-02-26T07:39:56;27.33;;;15.10;;
25045;SDS011;13044;49.304;12.840;2024-02-26T07:42:23;27.48;;;14.25;;
25045;SDS011;13044;49.304;12.840;2024-02-26T07:44:51;25.50;;;14.38;;
25045;SDS011;13044;49.304;12.840;2024-02-26T07:47:19;26.35;;;14.73;;
25045;SDS011;13044;49.304;12.840;2024-02-26T07:49:46;26.88;;;14.77;;
25045;SDS011;13044;49.304;12.840;2024-02-26T07:52:12;29.65;;;17.55;;
25045;SDS011;13044;49.304;12.840;2024-02-26T07:54:39;27.13;;;14.98;;
25045;SDS011;13044;49.304;12.840;2024-02-26T07:57:06;31.58;;;16.33;;
25045;SDS011;13044;49.304;12.840;2024-02-26T07:59:33;26.25;;;14.93;;
25045;SDS011;13044;49.304;12.840;2024-02-26T08:02:00;27.42;;;14.93;;
25045;SDS011;13044;49.304;12.840;2024-02-26T08:04:29;27.38;;;15.02;;
25045;SDS011;13044;49.304;12.840;2024-02-26T08:06:57;37.88;;;15.73;;
25045;SDS011;13044;49.304;12.840;2024-02-26T08:09:24;32.45;;;14.60;;
25045;SDS011;13044;49.304;12.840;2024-02-26T08:11:51;27.38;;;15.18;;
25045;SDS011;13044;49.304;12.840;2024-02-26T08:14:18;29.48;;;16.58;;
25045;SDS011;13044;49.304;12.840;2024-02-26T08:16:45;28.10;;;15.60;;
25045;SDS011;13044;49.304;12.840;2024-02-26T08:19:12;28.20;;;15.45;;
25045;SDS011;13044;49.304;12.840;2024-02-26T08:21:41;42.55;;;20.60;;
25045;SDS011;13044;49.304;12.840;2024-02-26T08:24:08;32.20;;;16.52;;
25045;SDS011;13044;49.304;12.840;2024-02-26T08:26:36;28.27;;;15.80;;
25045;SDS011;13044;49.304;12.840;2024-02-26T08:29:03;29.13;;;16.10;;
25045;SDS011;13044;49.304;12.840;2024-02-26T08:31:29;29.98;;;16.30;;
25045;SDS011;13044;49.304;12.840;2024-02-26T08:33:56;30.38;;;15.75;;
25045;SDS011;13044;49.304;12.840;2024-02-26T08:36:25;26.52;;;14.90;;
25045;SDS011;13044;49.304;12.840;2024-02-26T08:38:52;26.30;;;14.40;;
25045;SDS011;13044;49.304;12.840;2024-02-26T08:41:19;28.30;;;14.60;;
25045;SDS011;13044;49.304;12.840;2024-02-26T08:43:45;21.70;;;13.68;;
25045;SDS011;13044;49.304;12.840;2024-02-26T08:46:12;31.42;;;15.35;;
25045;SDS011;13044;49.304;12.840;2024-02-26T08:48:39;25.52;;;14.73;;
25045;SDS011;13044;49.304;12.840;2024-02-26T08:51:07;26.10;;;15.40;;
25045;SDS011;13044;49.304;12.840;2024-02-26T08:53:35;31.45;;;15.02;;
25045;SDS011;13044;49.304;12.840;2024-02-26T08:56:09;27.52;;;15.45;;
25045;SDS011;13044;49.304;12.840;2024-02-26T08:58:43;29.55;;;15.43;;
25045;SDS011;13044;49.304;12.840;2024-02-26T09:01:10;28.90;;;16.42;;
25045;SDS011;13044;49.304;12.840;2024-02-26T09:03:37;32.88;;;16.48;;
25045;SDS011;13044;49.304;12.840;2024-02-26T09:06:04;37.75;;;16.48;;
25045;SDS011;13044;49.304;12.840;2024-02-26T09:08:33;32.40;;;16.88;;
25045;SDS011;13044;49.304;12.840;2024-02-26T09:11:01;31.05;;;15.82;;
25045;SDS011;13044;49.304;12.840;2024-02-26T09:13:29;34.90;;;17.52;;
25045;SDS011;13044;49.304;12.840;2024-02-26T09:15:57;29.80;;;16.33;;
25045;SDS011;13044;49.304;12.840;2024-02-26T09:18:25;27.23;;;16.27;;
25045;SDS011;13044;49.304;12.840;2024-02-26T09:20:52;40.92;;;16.35;;
25045;SDS011;13044;49.304;12.840;2024-02-26T09:23:19;31.77;;;15.98;;
25045;SDS011;13044;49.304;12.840;2024-02-26T09:25:46;28.63;;;14.68;;
25045;SDS011;13044;49.304;12.840;2024-02-26T09:28:13;24.83;;;14.65;;
25045;SDS011;13044;49.304;12.840;2024-02-26T09:30:43;28.65;;;15.65;;
25045;SDS011;13044;49.304;12.840;2024-02-26T09:33:11;24.75;;;14.38;;
25045;SDS011;13044;49.304;12.840;2024-02-26T09:35:40;24.35;;;13.75;;
25045;SDS011;13044;49.304;12.840;2024-02-26T09:38:07;23.83;;;13.80;;
25045;SDS011;13044;49.304;12.840;2024-02-26T09:40:35;24.40;;;14.48;;
25045;SDS011;13044;49.304;12.840;2024-02-26T09:43:04;25.92;;;15.05;;
25045;SDS011;13044;49.304;12.840;2024-02-26T09:45:32;26.73;;;14.02;;
25045;SDS011;13044;49.304;12.840;2024-02-26T09:48:00;26.80;;;15.05;;
25045;SDS011;13044;49.304;12.840;2024-02-26T09:50:31;22.92;;;13.90;;
25045;SDS011;13044;49.304;12.840;2024-02-26T09:52:58;23.95;;;13.90;;
25045;SDS011;13044;49.304;12.840;2024-02-26T09:55:28;25.50;;;14.32;;
25045;SDS011;13044;49.304;12.840;2024-02-26T09:57:55;24.02;;;14.00;;
25045;SDS011;13044;49.304;12.840;2024-02-26T10:00:24;53.15;;;24.50;;
25045;SDS011;13044;49.304;12.840;2024-02-26T10:02:56;30.63;;;18.30;;
25045;SDS011;13044;49.304;12.840;2024-02-26T10:05:25;27.42;;;15.85;;
25045;SDS011;13044;49.304;12.840;2024-02-26T10:07:53;24.33;;;14.07;;
25045;SDS011;13044;49.304;12.840;2024-02-26T10:10:22;23.90;;;13.63;;
25045;SDS011;13044;49.304;12.840;2024-02-26T10:12:49;37.90;;;20.15;;
25045;SDS011;13044;49.304;12.840;2024-02-26T10:15:16;26.98;;;14.85;;
25045;SDS011;13044;49.304;12.840;2024-02-26T10:17:43;23.13;;;13.75;;
25045;SDS011;13044;49.304;12.840;2024-02-26T10:20:17;27.98;;;14.43;;
25045;SDS011;13044;49.304;12.840;2024-02-26T10:22:48;23.38;;;13.75;;
25045;SDS011;13044;49.304;12.840;2024-02-26T10:25:16;23.95;;;12.48;;
25045;SDS011;13044;49.304;12.840;2024-02-26T10:27:43;22.02;;;13.23;;
25045;SDS011;13044;49.304;12.840;2024-02-26T10:30:19;26.40;;;14.55;;
25045;SDS011;13044;49.304;12.840;2024-02-26T10:32:51;22.23;;;13.73;;
25045;SDS011;13044;49.304;12.840;2024-02-26T10:35:18;20.92;;;12.88;;
25045;SDS011;13044;49.304;12.840;2024-02-26T10:37:49;19.58;;;12.40;;
25045;SDS011;13044;49.304;12.840;2024-02-26T10:40:16;22.20;;;13.30;;
25045;SDS011;13044;49.304;12.840;2024-02-26T10:42:43;20.40;;;13.00;;
25045;SDS011;13044;49.304;12.840;2024-02-26T10:45:13;22.92;;;14.05;;
25045;SDS011;13044;49.304;12.840;2024-02-26T10:47:40;21.98;;;13.05;;
25045;SDS011;13044;49.304;12.840;2024-02-26T10:50:10;22.80;;;14.00;;
25045;SDS011;13044;49.304;12.840;2024-02-26T10:52:41;23.23;;;12.15;;
25045;SDS011;13044;49.304;12.840;2024-02-26T10:55:09;22.30;;;12.82;;
25045;SDS011;13044;49.304;12.840;2024-02-26T10:57:45;22.83;;;13.07;;
25045;SDS011;13044;49.304;12.840;2024-02-26T11:00:13;23.17;;;13.20;;
25045;SDS011;13044;49.304;12.840;2024-02-26T11:02:42;21.90;;;12.57;;
25045;SDS011;13044;49.304;12.840;2024-02-26T11:05:12;25.75;;;14.18;;
25045;SDS011;13044;49.304;12.840;2024-02-26T11:07:41;23.08;;;14.02;;
25045;SDS011;13044;49.304;12.840;2024-02-26T11:10:08;24.33;;;14.07;;
25045;SDS011;13044;49.304;12.840;2024-02-26T11:12:37;24.02;;;13.48;;
25045;SDS011;13044;49.304;12.840;2024-02-26T11:15:06;24.25;;;13.95;;
25045;SDS011;13044;49.304;12.840;2024-02-26T11:17:34;21.88;;;12.80;;
25045;SDS011;13044;49.304;12.840;2024-02-26T11:20:03;23.27;;;13.50;;
25045;SDS011;13044;49.304;12.840;2024-02-26T11:22:32;24.10;;;14.57;;
25045;SDS011;13044;49.304;12.840;2024-02-26T11:24:59;24.63;;;14.18;;
25045;SDS011;13044;49.304;12.840;2024-02-26T11:27:28;21.80;;;13.45;;
25045;SDS011;13044;49.304;12.840;2024-02-26T11:30:01;23.67;;;14.02;;
25045;SDS011;13044;49.304;12.840;2024-02-26T11:32:31;21.13;;;12.95;;
25045;SDS011;13044;49.304;12.840;2024-02-26T11:35:01;22.42;;;12.88;;
25045;SDS011;13044;49.304;12.840;2024-02-26T11:37:30;21.45;;;13.38;;
25045;SDS011;13044;49.304;12.840;2024-02-26T11:42:31;18.27;;;11.43;;
25045;SDS011;13044;49.304;12.840;2024-02-26T11:44:59;20.52;;;12.93;;
25045;SDS011;13044;49.304;12.840;2024-02-26T11:47:27;24.05;;;13.15;;
25045;SDS011;13044;49.304;12.840;2024-02-26T11:49:54;18.65;;;11.93;;
25045;SDS011;13044;49.304;12.840;2024-02-26T11:52:21;20.27;;;12.60;;
25045;SDS011;13044;49.304;12.840;2024-02-26T11:57:21;23.63;;;12.90;;
25045;SDS011;13044;49.304;12.840;2024-02-26T11:59:48;21.35;;;12.40;;
25045;SDS011;13044;49.304;12.840;2024-02-26T12:02:51;18.50;;;12.02;;
25045;SDS011;13044;49.304;12.840;2024-02-26T12:05:20;22.45;;;12.20;;
25045;SDS011;13044;49.304;12.840;2024-02-26T12:07:54;19.60;;;12.35;;
25045;SDS011;13044;49.304;12.840;2024-02-26T12:10:35;21.65;;;13.02;;
25045;SDS011;13044;49.304;12.840;2024-02-26T12:15:46;19.88;;;12.80;;
25045;SDS011;13044;49.304;12.840;2024-02-26T12:18:23;21.90;;;12.90;;
25045;SDS011;13044;49.304;12.840;2024-02-26T12:21:00;22.55;;;12.95;;
25045;SDS011;13044;49.304;12.840;2024-02-26T12:23:28;19.88;;;12.18;;
25045;SDS011;13044;49.304;12.840;2024-02-26T12:25:58;21.75;;;13.52;;
25045;SDS011;13044;49.304;12.840;2024-02-26T12:28:29;21.77;;;13.05;;
25045;SDS011;13044;49.304;12.840;2024-02-26T12:30:56;23.60;;;13.77;;
25045;SDS011;13044;49.304;12.840;2024-02-26T12:33:26;20.80;;;13.23;;
25045;SDS011;13044;49.304;12.840;2024-02-26T12:35:54;24.08;;;13.82;;
25045;SDS011;13044;49.304;12.840;2024-02-26T12:38:21;20.63;;;13.18;;
25045;SDS011;13044;49.304;12.840;2024-02-26T12:40:48;24.08;;;14.68;;
25045;SDS011;13044;49.304;12.840;2024-02-26T12:43:16;25.42;;;13.73;;
25045;SDS011;13044;49.304;12.840;2024-02-26T12:45:43;23.38;;;14.98;;
25045;SDS011;13044;49.304;12.840;2024-02-26T12:48:12;23.33;;;14.10;;
25045;SDS011;13044;49.304;12.840;2024-02-26T12:50:44;23.48;;;14.00;;
25045;SDS011;13044;49.304;12.840;2024-02-26T12:53:13;23.67;;;14.73;;
25045;SDS011;13044;49.304;12.840;2024-02-26T12:55:41;26.42;;;16.02;;
25045;SDS011;13044;49.304;12.840;2024-02-26T12:58:08;24.95;;;14.80;;
25045;SDS011;13044;49.304;12.840;2024-02-26T13:00:36;24.48;;;14.98;;
25045;SDS011;13044;49.304;12.840;2024-02-26T13:03:03;28.50;;;15.68;;
25045;SDS011;13044;49.304;12.840;2024-02-26T13:05:31;26.80;;;16.13;;
25045;SDS011;13044;49.304;12.840;2024-02-26T13:07:59;29.67;;;16.33;;
25045;SDS011;13044;49.304;12.840;2024-02-26T13:10:26;27.05;;;15.75;;
25045;SDS011;13044;49.304;12.840;2024-02-26T13:12:53;29.92;;;17.10;;
25045;SDS011;13044;49.304;12.840;2024-02-26T13:15:20;30.13;;;17.08;;
25045;SDS011;13044;49.304;12.840;2024-02-26T13:17:49;31.73;;;17.92;;
25045;SDS011;13044;49.304;12.840;2024-02-26T13:20:26;28.35;;;16.38;;
25045;SDS011;13044;49.304;12.840;2024-02-26T13:23:02;27.58;;;16.77;;
25045;SDS011;13044;49.304;12.840;2024-02-26T13:25:31;28.83;;;17.65;;
25045;SDS011;13044;49.304;12.840;2024-02-26T13:30:40;34.85;;;18.55;;
25045;SDS011;13044;49.304;12.840;2024-02-26T13:33:07;29.02;;;16.67;;
25045;SDS011;13044;49.304;12.840;2024-02-26T13:35:37;30.38;;;17.80;;
25045;SDS011;13044;49.304;12.840;2024-02-26T13:38:05;27.70;;;16.33;;
25045;SDS011;13044;49.304;12.840;2024-02-26T13:40:32;31.05;;;17.50;;
25045;SDS011;13044;49.304;12.840;2024-02-26T13:43:00;29.88;;;18.23;;
25045;SDS011;13044;49.304;12.840;2024-02-26T13:45:27;34.45;;;19.60;;
25045;SDS011;13044;49.304;12.840;2024-02-26T13:48:01;37.45;;;20.38;;
25045;SDS011;13044;49.304;12.840;2024-02-26T13:50:33;36.45;;;20.52;;
25045;SDS011;13044;49.304;12.840;2024-02-26T13:53:01;39.10;;;20.77;;
25045;SDS011;13044;49.304;12.840;2024-02-26T13:55:28;38.35;;;20.70;;
25045;SDS011;13044;49.304;12.840;2024-02-26T13:57:58;38.70;;;20.52;;
25045;SDS011;13044;49.304;12.840;2024-02-26T14:00:27;43.70;;;23.75;;
25045;SDS011;13044;49.304;12.840;2024-02-26T14:02:58;44.58;;;24.58;;
25045;SDS011;13044;49.304;12.840;2024-02-26T14:05:26;45.13;;;23.80;;
25045;SDS011;13044;49.304;12.840;2024-02-26T14:07:53;40.60;;;23.33;;
25045;SDS011;13044;49.304;12.840;2024-02-26T14:10:21;36.03;;;20.60;;
25045;SDS011;13044;49.304;12.840;2024-02-26T14:12:48;47.75;;;24.63;;
25045;SDS011;13044;49.304;12.840;2024-02-26T14:15:15;55.67;;;27.60;;
25045;SDS011;13044;49.304;12.840;2024-02-26T14:17:42;43.08;;;23.98;;
25045;SDS011;13044;49.304;12.840;2024-02-26T14:20:10;41.75;;;23.75;;
25045;SDS011;13044;49.304;12.840;2024-02-26T14:22:37;33.72;;;19.83;;
25045;SDS011;13044;49.304;12.840;2024-02-26T14:25:04;37.10;;;21.67;;